createdAt,value
2022-08-16T00:01:41.067Z,21.37
2022-08-16T00:04:09.657Z,21.37
2022-08-16T00:06:39.575Z,21.36
2022-08-16T00:09:07.383Z,21.37
2022-08-16T00:11:39.007Z,21.37
2022-08-16T00:14:08.990Z,21.37
2022-08-16T00:17:01.026Z,21.37
2022-08-16T00:19:28.386Z,21.37
2022-08-16T00:22:13.402Z,21.37
2022-08-16T00:24:46.562Z,21.36
2022-08-16T00:27:14.313Z,21.36
2022-08-16T00:29:41.362Z,21.35
2022-08-16T00:32:08.760Z,21.34
2022-08-16T00:34:44.885Z,21.33
2022-08-16T00:37:24.609Z,21.32
2022-08-16T00:39:57.413Z,21.31
2022-08-16T00:42:29.488Z,21.29
2022-08-16T00:45:06.364Z,21.27
2022-08-16T00:47:34.855Z,21.25
2022-08-16T00:50:05.408Z,21.21
2022-08-16T00:52:38.554Z,21.17
2022-08-16T00:55:12.777Z,21.13
2022-08-16T00:57:59.806Z,21.11
2022-08-16T01:00:29.951Z,21.08
2022-08-16T01:03:01.154Z,21.04
2022-08-16T01:05:29.809Z,20.93
2022-08-16T01:10:31.564Z,20.75
2022-08-16T01:13:04.529Z,20.72
2022-08-16T01:15:34.044Z,20.70
2022-08-16T01:18:02.677Z,20.60
2022-08-16T01:20:34.064Z,20.50
2022-08-16T01:23:17.282Z,20.37
2022-08-16T01:25:59.912Z,20.37
2022-08-16T01:28:38.857Z,20.37
2022-08-16T01:31:14.794Z,20.39
2022-08-16T01:33:44.688Z,20.38
2022-08-16T01:36:12.937Z,20.39
2022-08-16T01:38:47.102Z,20.40
2022-08-16T01:41:21.208Z,20.18
2022-08-16T01:43:53.697Z,20.33
2022-08-16T01:49:10.059Z,20.29
2022-08-16T01:51:39.348Z,20.26
2022-08-16T01:54:07.269Z,20.22
2022-08-16T01:56:35.110Z,20.20
2022-08-16T01:59:04.974Z,20.18
2022-08-16T02:01:32.401Z,20.15
2022-08-16T02:04:10.407Z,20.11
2022-08-16T02:06:45.239Z,20.07
2022-08-16T02:09:14.821Z,20.01
2022-08-16T02:11:52.858Z,19.96
2022-08-16T02:14:26.471Z,19.90
2022-08-16T02:16:56.275Z,19.85
2022-08-16T02:19:24.117Z,19.80
2022-08-16T02:22:34.382Z,19.76
2022-08-16T02:25:01.727Z,19.71
2022-08-16T02:27:28.386Z,19.70
2022-08-16T02:30:04.925Z,19.65
2022-08-16T02:32:50.537Z,19.61
2022-08-16T02:35:19.127Z,19.56
2022-08-16T02:37:52.642Z,19.51
2022-08-16T02:40:22.866Z,19.51
2022-08-16T02:42:51.044Z,19.44
2022-08-16T02:45:20.818Z,19.38
2022-08-16T02:48:00.145Z,19.36
2022-08-16T02:50:55.093Z,19.32
2022-08-16T02:53:18.005Z,19.27
2022-08-16T02:55:45.294Z,19.26
2022-08-16T02:58:17.134Z,19.23
2022-08-16T03:00:45.498Z,19.20
2022-08-16T03:03:17.729Z,19.19
2022-08-16T03:05:45.555Z,19.16
2022-08-16T03:08:50.809Z,19.16
2022-08-16T03:11:16.968Z,19.10
2022-08-16T03:13:51.302Z,19.10
2022-08-16T03:16:38.160Z,19.08
2022-08-16T03:19:07.702Z,19.06
2022-08-16T03:21:37.989Z,19.05
2022-08-16T03:24:28.425Z,19.04
2022-08-16T03:26:57.761Z,18.99
2022-08-16T03:29:29.964Z,18.96
2022-08-16T03:31:59.327Z,18.94
2022-08-16T03:34:27.440Z,18.92
2022-08-16T03:36:54.878Z,18.91
2022-08-16T03:39:22.337Z,18.88
2022-08-16T03:41:59.137Z,18.87
2022-08-16T03:44:44.351Z,18.84
2022-08-16T03:47:12.817Z,18.80
2022-08-16T03:49:47.558Z,18.79
2022-08-16T03:52:20.377Z,18.79
2022-08-16T03:54:53.312Z,18.78
2022-08-16T03:57:23.930Z,18.78
2022-08-16T03:59:59.397Z,18.77
2022-08-16T04:02:31.690Z,18.75
2022-08-16T04:04:58.655Z,18.74
2022-08-16T04:07:25.461Z,18.74
2022-08-16T04:09:52.517Z,18.74
2022-08-16T04:12:53.200Z,18.73
2022-08-16T04:15:09.242Z,18.73
2022-08-16T04:17:37.031Z,18.72
2022-08-16T04:20:31.650Z,18.71
2022-08-16T04:22:56.164Z,18.66
2022-08-16T04:25:23.679Z,18.67
2022-08-16T04:27:54.376Z,18.68
2022-08-16T04:30:32.330Z,18.66
2022-08-16T04:33:02.551Z,18.66
2022-08-16T04:35:34.002Z,18.65
2022-08-16T04:38:10.960Z,18.64
2022-08-16T04:40:48.001Z,18.64
2022-08-16T04:43:17.531Z,18.65
2022-08-16T04:45:44.674Z,18.65
2022-08-16T04:48:11.419Z,18.64
2022-08-16T04:50:49.322Z,18.65
2022-08-16T04:53:16.818Z,18.62
2022-08-16T04:55:45.958Z,18.61
2022-08-16T04:58:43.767Z,18.60
2022-08-16T05:01:00.549Z,18.58
2022-08-16T05:03:27.684Z,18.57
2022-08-16T05:05:59.025Z,18.57
2022-08-16T05:08:30.771Z,18.55
2022-08-16T05:11:01.283Z,18.52
2022-08-16T05:13:41.799Z,18.49
2022-08-16T05:16:19.822Z,18.45
2022-08-16T05:18:48.728Z,18.45
2022-08-16T05:21:15.330Z,18.43
2022-08-16T05:23:51.453Z,18.42
2022-08-16T05:26:24.475Z,18.40
2022-08-16T05:28:55.719Z,18.41
2022-08-16T05:31:29.819Z,18.44
2022-08-16T05:33:59.101Z,18.43
2022-08-16T05:36:34.336Z,18.43
2022-08-16T05:39:09.565Z,18.43
2022-08-16T05:41:45.173Z,18.47
2022-08-16T05:44:23.078Z,18.53
2022-08-16T05:47:00.230Z,18.57
2022-08-16T05:49:39.830Z,18.63
2022-08-16T05:52:11.598Z,18.70
2022-08-16T05:54:47.814Z,18.73
2022-08-16T05:57:25.662Z,18.77
2022-08-16T06:00:05.683Z,18.80
2022-08-16T06:02:35.938Z,18.83
2022-08-16T06:05:03.863Z,18.87
2022-08-16T06:07:32.163Z,18.92
2022-08-16T06:10:00.221Z,18.96
2022-08-16T06:12:29.947Z,19.00
2022-08-16T06:15:01.796Z,19.05
2022-08-16T06:17:41.751Z,19.07
2022-08-16T06:20:14.519Z,19.11
2022-08-16T06:22:47.772Z,19.13
2022-08-16T06:25:36.459Z,19.17
2022-08-16T06:28:08.810Z,19.24
2022-08-16T06:30:36.254Z,19.30
2022-08-16T06:33:12.256Z,19.35
2022-08-16T06:35:40.599Z,19.41
2022-08-16T06:38:31.906Z,19.46
2022-08-16T06:40:56.658Z,19.53
2022-08-16T06:43:27.259Z,19.58
2022-08-16T06:45:54.745Z,19.62
2022-08-16T06:48:32.776Z,19.65
2022-08-16T06:51:01.595Z,19.70
2022-08-16T06:53:29.692Z,19.71
2022-08-16T06:55:58.750Z,19.73
2022-08-16T06:58:31.464Z,19.72
2022-08-16T07:01:00.234Z,19.75
2022-08-16T07:03:32.179Z,19.75
2022-08-16T07:05:59.677Z,19.75
2022-08-16T07:08:27.984Z,19.76
2022-08-16T07:10:56.639Z,19.77
2022-08-16T07:13:57.996Z,19.77
2022-08-16T07:16:15.527Z,19.81
2022-08-16T07:19:01.069Z,19.84
2022-08-16T07:21:45.621Z,19.86
2022-08-16T07:24:29.601Z,19.91
2022-08-16T07:26:57.692Z,19.95
2022-08-16T07:29:24.890Z,19.97
2022-08-16T07:31:53.841Z,20.02
2022-08-16T07:34:21.012Z,20.02
2022-08-16T07:37:06.950Z,20.08
2022-08-16T07:39:33.749Z,20.11
2022-08-16T07:42:01.047Z,20.15
2022-08-16T07:44:28.726Z,20.20
2022-08-16T07:47:15.409Z,20.23
2022-08-16T07:49:53.066Z,20.24
2022-08-16T07:52:25.031Z,20.22
2022-08-16T07:54:57.250Z,20.20
2022-08-16T07:57:24.655Z,20.20
2022-08-16T07:59:51.927Z,20.20
2022-08-16T08:02:20.376Z,20.22
2022-08-16T08:04:48.737Z,20.20
2022-08-16T08:07:16.294Z,20.15
2022-08-16T08:09:44.051Z,20.13
2022-08-16T08:12:32.182Z,20.12
2022-08-16T08:14:59.498Z,20.14
2022-08-16T08:17:43.170Z,20.17
2022-08-16T08:20:26.432Z,20.24
2022-08-16T08:23:00.619Z,20.27
2022-08-16T08:25:52.676Z,20.29
2022-08-16T08:28:18.010Z,20.29
2022-08-16T08:30:51.277Z,20.29
2022-08-16T08:33:28.424Z,20.27
2022-08-16T08:36:00.914Z,20.28
2022-08-16T08:38:43.961Z,20.28
2022-08-16T08:41:12.779Z,20.30
2022-08-16T08:43:41.799Z,20.31
2022-08-16T08:46:17.953Z,20.34
2022-08-16T08:48:58.375Z,20.34
2022-08-16T08:51:35.520Z,20.37
2022-08-16T08:54:06.981Z,20.41
2022-08-16T08:56:37.504Z,20.44
2022-08-16T08:59:19.777Z,20.46
2022-08-16T09:01:57.760Z,20.50
2022-08-16T09:04:26.751Z,20.55
2022-08-16T09:06:54.506Z,20.59
2022-08-16T09:09:23.383Z,20.62
2022-08-16T09:11:53.767Z,20.62
2022-08-16T09:14:31.945Z,20.64
2022-08-16T09:17:03.699Z,20.67
2022-08-16T09:19:40.913Z,20.71
2022-08-16T09:22:20.673Z,20.74
2022-08-16T09:24:53.526Z,20.79
2022-08-16T09:27:23.557Z,20.85
2022-08-16T09:30:00.114Z,20.88
2022-08-16T09:32:30.503Z,20.91
2022-08-16T09:34:58.693Z,20.96
2022-08-16T09:37:29.359Z,21.04
2022-08-16T09:39:59.647Z,21.13
2022-08-16T09:42:28.334Z,21.23
2022-08-16T09:45:10.644Z,21.38
2022-08-16T09:47:56.674Z,21.56
2022-08-16T09:50:37.236Z,21.78
2022-08-16T09:53:15.126Z,21.97
2022-08-16T09:55:49.571Z,22.16
2022-08-16T09:58:41.600Z,22.41
2022-08-16T10:01:06.562Z,22.79
2022-08-16T10:03:35.586Z,23.03
2022-08-16T10:06:02.470Z,23.28
2022-08-16T10:08:29.108Z,23.46
2022-08-16T10:11:15.618Z,23.62
2022-08-16T10:13:51.243Z,23.79
2022-08-16T10:16:21.740Z,24.01
2022-08-16T10:19:01.804Z,24.24
2022-08-16T10:21:34.008Z,24.45
2022-08-16T10:24:03.655Z,24.62
2022-08-16T10:27:19.648Z,24.78
2022-08-16T10:29:19.912Z,24.84
2022-08-16T10:31:53.575Z,24.85
2022-08-16T10:34:30.917Z,24.90
2022-08-16T10:37:00.586Z,24.97
2022-08-16T10:39:32.852Z,25.02
2022-08-16T10:42:08.529Z,25.05
2022-08-16T10:44:35.311Z,25.09
2022-08-16T10:47:02.389Z,25.06
2022-08-16T10:49:29.351Z,25.06
2022-08-16T10:52:01.551Z,25.06
2022-08-16T10:54:59.201Z,25.13
2022-08-16T10:57:32.894Z,25.20
2022-08-16T11:00:01.355Z,25.21
2022-08-16T11:02:59.982Z,25.21
2022-08-16T11:05:17.527Z,25.13
2022-08-16T11:07:53.484Z,25.06
2022-08-16T11:13:57.399Z,25.00
2022-08-16T11:16:01.221Z,24.97
2022-08-16T11:19:03.784Z,24.94
2022-08-16T11:21:28.526Z,24.83
2022-08-16T11:23:58.035Z,24.74
2022-08-16T11:26:25.674Z,24.74
2022-08-16T11:31:40.248Z,24.71
2022-08-16T11:34:13.930Z,24.67
2022-08-16T11:36:53.719Z,24.63
2022-08-16T11:39:27.274Z,24.63
2022-08-16T11:41:56.135Z,24.67
2022-08-16T11:44:51.981Z,24.73
2022-08-16T11:47:11.337Z,24.82
2022-08-16T11:49:37.942Z,24.92
2022-08-16T11:52:05.232Z,25.00
2022-08-16T11:54:35.735Z,25.01
2022-08-16T11:57:03.476Z,25.01
2022-08-16T11:59:36.528Z,24.99
2022-08-16T12:02:30.899Z,25.02
2022-08-16T12:04:55.350Z,25.04
2022-08-16T12:07:23.832Z,25.07
2022-08-16T12:09:53.086Z,25.13
2022-08-16T12:12:20.333Z,25.04
2022-08-16T12:14:46.995Z,25.25
2022-08-16T12:17:14.360Z,25.32
2022-08-16T12:19:41.652Z,25.37
2022-08-16T12:22:19.893Z,25.39
2022-08-16T12:24:52.067Z,25.46
2022-08-16T12:27:23.058Z,25.46
2022-08-16T12:29:52.688Z,25.57
2022-08-16T12:32:38.257Z,25.69
2022-08-16T12:35:10.116Z,25.82
2022-08-16T12:37:36.932Z,25.89
2022-08-16T12:40:22.453Z,26.02
2022-08-16T12:42:54.106Z,26.16
2022-08-16T12:45:22.618Z,26.35
2022-08-16T12:48:32.578Z,26.44
2022-08-16T12:50:58.134Z,26.54
2022-08-16T12:53:31.921Z,26.59
2022-08-16T12:56:00.030Z,26.63
2022-08-16T12:58:49.604Z,26.62
2022-08-16T13:01:14.363Z,26.63
2022-08-16T13:03:41.616Z,26.68
2022-08-16T13:06:08.859Z,26.77
2022-08-16T13:08:36.311Z,26.92
2022-08-16T13:11:04.679Z,27.04
2022-08-16T13:13:35.989Z,27.10
2022-08-16T13:16:15.245Z,27.09
2022-08-16T13:18:52.330Z,27.06
2022-08-16T13:21:23.344Z,27.16
2022-08-16T13:23:51.039Z,27.26
2022-08-16T13:26:20.340Z,27.33
2022-08-16T13:28:47.726Z,27.35
2022-08-16T13:31:16.009Z,27.36
2022-08-16T13:33:46.657Z,27.38
2022-08-16T13:36:38.833Z,27.43
2022-08-16T13:39:01.518Z,27.53
2022-08-16T13:41:30.158Z,27.57
2022-08-16T13:43:59.356Z,27.62
2022-08-16T13:46:27.621Z,27.61
2022-08-16T13:48:56.239Z,27.59
2022-08-16T13:51:29.247Z,27.57
2022-08-16T13:54:02.679Z,27.59
2022-08-16T13:56:37.906Z,27.61
2022-08-16T13:59:16.597Z,27.67
2022-08-16T14:01:55.695Z,27.69
2022-08-16T14:04:26.704Z,27.50
2022-08-16T14:06:55.241Z,27.64
2022-08-16T14:09:23.726Z,27.73
2022-08-16T14:11:53.329Z,27.73
2022-08-16T14:14:28.382Z,27.82
2022-08-16T14:16:56.458Z,27.77
2022-08-16T14:19:23.088Z,27.88
2022-08-16T14:21:56.668Z,27.94
2022-08-16T14:24:37.089Z,28.03
2022-08-16T14:27:04.816Z,28.11
2022-08-16T14:29:35.141Z,28.07
2022-08-16T14:32:06.984Z,28.03
2022-08-16T14:34:33.623Z,28.02
2022-08-16T14:37:00.702Z,27.96
2022-08-16T14:39:27.353Z,27.91
2022-08-16T14:41:55.831Z,27.89
2022-08-16T14:44:23.572Z,27.90
2022-08-16T14:46:50.190Z,27.94
2022-08-16T14:49:19.289Z,27.80
2022-08-16T14:51:46.404Z,27.93
2022-08-16T14:54:15.101Z,27.93
2022-08-16T14:56:42.873Z,27.83
2022-08-16T14:59:13.498Z,28.00
2022-08-16T15:01:58.062Z,27.96
2022-08-16T15:04:39.244Z,27.89
2022-08-16T15:07:12.474Z,27.87
2022-08-16T15:09:44.213Z,27.87
2022-08-16T15:12:33.472Z,27.75
2022-08-16T15:15:12.030Z,27.24
2022-08-16T15:17:54.535Z,27.00
2022-08-16T15:20:29.134Z,26.77
2022-08-16T15:22:58.937Z,26.44
2022-08-16T15:25:30.669Z,26.09
2022-08-16T15:28:02.377Z,25.91
2022-08-16T15:30:44.775Z,25.74
2022-08-16T15:33:20.711Z,25.51
2022-08-16T15:35:50.149Z,25.29
2022-08-16T15:38:56.943Z,25.21
2022-08-16T15:41:04.871Z,25.21
2022-08-16T15:43:33.734Z,25.15
2022-08-16T15:46:35.839Z,25.09
2022-08-16T15:49:14.054Z,25.09
2022-08-16T15:51:43.629Z,24.95
2022-08-16T15:54:21.051Z,24.89
2022-08-16T15:57:01.555Z,24.80
2022-08-16T15:59:34.817Z,24.78
2022-08-16T16:02:20.571Z,24.77
2022-08-16T16:04:55.291Z,24.72
2022-08-16T16:07:22.121Z,24.69
2022-08-16T16:09:49.812Z,24.67
2022-08-16T16:12:50.373Z,24.68
2022-08-16T16:15:07.356Z,24.67
2022-08-16T16:17:34.308Z,24.67
2022-08-16T16:20:04.393Z,24.64
2022-08-16T16:22:32.030Z,24.67
2022-08-16T16:24:58.965Z,24.59
2022-08-16T16:27:25.593Z,24.60
2022-08-16T16:29:57.987Z,24.60
2022-08-16T16:32:34.330Z,24.41
2022-08-16T16:35:02.383Z,24.56
2022-08-16T16:37:31.142Z,24.58
2022-08-16T16:39:58.840Z,24.62
2022-08-16T16:42:29.981Z,24.60
2022-08-16T16:45:01.510Z,24.56
2022-08-16T16:47:30.144Z,24.58
2022-08-16T16:50:09.234Z,24.57
2022-08-16T16:52:44.661Z,24.58
2022-08-16T16:55:14.664Z,24.63
2022-08-16T16:58:03.211Z,24.68
2022-08-16T17:00:37.910Z,24.71
2022-08-16T17:03:17.214Z,24.68
2022-08-16T17:05:51.044Z,24.59
2022-08-16T17:08:25.646Z,24.47
2022-08-16T17:10:54.066Z,24.35
2022-08-16T17:13:23.846Z,24.24
2022-08-16T17:15:52.844Z,24.08
2022-08-16T17:19:14.457Z,23.96
2022-08-16T17:21:08.406Z,23.78
2022-08-16T17:23:58.511Z,23.67
2022-08-16T17:26:30.270Z,23.58
2022-08-16T17:29:02.594Z,23.47
2022-08-16T17:31:43.778Z,23.37
2022-08-16T17:34:28.870Z,23.26
2022-08-16T17:36:58.890Z,23.13
2022-08-16T17:39:29.496Z,23.05
2022-08-16T17:41:58.194Z,22.97
2022-08-16T17:44:25.366Z,22.89
2022-08-16T17:46:53.107Z,22.74
2022-08-16T17:49:21.244Z,22.60
2022-08-16T17:51:48.537Z,22.50
2022-08-16T17:54:20.365Z,22.41
2022-08-16T17:57:00.564Z,22.32
2022-08-16T17:59:28.917Z,22.23
2022-08-16T18:01:56.203Z,22.11
2022-08-16T18:04:48.468Z,22.04
2022-08-16T18:07:10.252Z,21.96
2022-08-16T18:09:37.029Z,21.93
2022-08-16T18:12:50.733Z,21.85
2022-08-16T18:15:08.518Z,21.82
2022-08-16T18:17:35.111Z,21.80
2022-08-16T18:20:02.235Z,21.78
2022-08-16T18:22:32.301Z,21.75
2022-08-16T18:24:59.694Z,21.74
2022-08-16T18:27:29.705Z,21.68
2022-08-16T18:29:56.329Z,21.66
2022-08-16T18:32:24.735Z,21.66
2022-08-16T18:34:54.361Z,21.66
2022-08-16T18:37:23.252Z,21.65
2022-08-16T18:39:50.208Z,21.62
2022-08-16T18:42:16.866Z,21.58
2022-08-16T18:44:44.358Z,21.55
2022-08-16T18:47:11.544Z,21.51
2022-08-16T18:49:38.306Z,21.47
2022-08-16T18:52:05.068Z,21.45
2022-08-16T18:54:33.462Z,21.42
2022-08-16T18:57:03.478Z,21.37
2022-08-16T18:59:34.024Z,21.31
2022-08-16T19:02:04.982Z,21.26
2022-08-16T19:04:55.213Z,21.21
2022-08-16T19:07:21.442Z,21.09
2022-08-16T19:09:48.083Z,21.03
2022-08-16T19:12:15.901Z,20.99
2022-08-16T19:14:44.238Z,20.92
2022-08-16T19:17:11.723Z,20.87
2022-08-16T19:19:38.355Z,20.79
2022-08-16T19:22:06.250Z,20.74
2022-08-16T19:24:32.840Z,20.69
2022-08-16T19:26:59.458Z,20.63
2022-08-16T19:29:28.579Z,20.59
2022-08-16T19:31:55.227Z,20.54
2022-08-16T19:34:21.932Z,20.51
2022-08-16T19:36:48.731Z,20.47
2022-08-16T19:39:16.502Z,20.42
2022-08-16T19:41:46.076Z,20.41
2022-08-16T19:44:13.514Z,20.38
2022-08-16T19:46:44.838Z,20.34
2022-08-16T19:49:16.200Z,20.32
2022-08-16T19:51:44.447Z,20.31
2022-08-16T19:54:11.058Z,20.28
2022-08-16T19:56:37.985Z,20.26
2022-08-16T19:59:21.934Z,20.24
2022-08-16T20:01:52.044Z,20.22
2022-08-16T20:04:19.527Z,20.22
2022-08-16T20:06:47.184Z,20.22
2022-08-16T20:09:15.855Z,20.23
2022-08-16T20:11:45.054Z,20.24
2022-08-16T20:14:24.243Z,20.23
2022-08-16T20:16:52.284Z,20.20
2022-08-16T20:19:19.389Z,20.21
2022-08-16T20:21:46.253Z,20.21
2022-08-16T20:24:32.924Z,20.21
2022-08-16T20:27:00.023Z,20.19
2022-08-16T20:29:28.188Z,20.19
2022-08-16T20:31:56.426Z,20.18
2022-08-16T20:34:23.534Z,20.19
2022-08-16T20:36:50.168Z,20.17
2022-08-16T20:39:17.212Z,20.16
2022-08-16T20:41:44.627Z,20.16
2022-08-16T20:44:12.711Z,20.16
2022-08-16T20:46:40.036Z,20.15
2022-08-16T20:49:08.987Z,20.17
2022-08-16T20:51:47.040Z,20.19
2022-08-16T20:54:18.068Z,20.21
2022-08-16T20:56:44.709Z,20.21
2022-08-16T20:59:11.293Z,20.22
2022-08-16T21:01:46.494Z,20.22
2022-08-16T21:04:19.385Z,20.22
2022-08-16T21:06:53.734Z,20.23
2022-08-16T21:09:24.163Z,20.22
2022-08-16T21:11:53.041Z,20.22
2022-08-16T21:14:19.686Z,20.21
2022-08-16T21:16:46.393Z,20.20
2022-08-16T21:19:13.272Z,20.21
2022-08-16T21:21:39.882Z,20.22
2022-08-16T21:24:06.595Z,20.23
2022-08-16T21:26:34.926Z,20.21
2022-08-16T21:29:07.732Z,20.16
2022-08-16T21:31:38.234Z,20.08
2022-08-16T21:34:04.848Z,20.03
2022-08-16T21:36:34.964Z,19.99
2022-08-16T21:39:04.818Z,19.96
2022-08-16T21:41:31.986Z,19.93
2022-08-16T21:43:58.584Z,19.89
2022-08-16T21:46:25.173Z,19.89
2022-08-16T21:48:51.799Z,19.84
2022-08-16T21:51:18.495Z,19.75
2022-08-16T21:53:45.152Z,19.71
2022-08-16T21:56:12.721Z,19.70
2022-08-16T21:58:46.241Z,19.68
2022-08-16T22:01:13.389Z,19.68
2022-08-16T22:03:40.012Z,19.66
2022-08-16T22:06:14.060Z,19.68
2022-08-16T22:08:46.717Z,19.70
2022-08-16T22:11:18.395Z,19.51
2022-08-16T22:13:56.471Z,19.65
2022-08-16T22:16:27.287Z,19.66
2022-08-16T22:18:53.937Z,19.65
2022-08-16T22:21:20.860Z,19.58
2022-08-16T22:23:56.667Z,19.55
2022-08-16T22:26:29.902Z,19.46
2022-08-16T22:29:02.555Z,19.44
2022-08-16T22:31:29.226Z,19.43
2022-08-16T22:33:56.786Z,19.41
2022-08-16T22:36:23.778Z,19.37
2022-08-16T22:38:58.239Z,19.34
2022-08-16T22:41:27.571Z,19.33
2022-08-16T22:43:54.239Z,19.32
2022-08-16T22:46:21.048Z,19.32
2022-08-16T22:48:50.442Z,19.33
2022-08-16T22:51:18.932Z,19.37
2022-08-16T22:53:45.846Z,19.36
2022-08-16T22:56:12.866Z,19.30
2022-08-16T22:58:39.664Z,19.29
2022-08-16T23:01:08.258Z,19.29
2022-08-16T23:03:35.912Z,19.26
2022-08-16T23:06:03.990Z,19.22
2022-08-16T23:08:39.984Z,19.19
2022-08-16T23:11:10.146Z,19.17
2022-08-16T23:13:36.912Z,19.15
2022-08-16T23:16:10.654Z,19.16
2022-08-16T23:18:37.628Z,19.13
2022-08-16T23:21:08.499Z,19.13
2022-08-16T23:23:35.844Z,19.13
2022-08-16T23:26:45.298Z,19.14
2022-08-16T23:28:50.155Z,19.15
2022-08-16T23:31:18.523Z,19.16
2022-08-16T23:33:45.963Z,19.16
2022-08-16T23:36:13.049Z,19.16
2022-08-16T23:38:40.151Z,19.13
2022-08-16T23:41:13.443Z,19.11
2022-08-16T23:43:43.238Z,19.11
2022-08-16T23:46:18.190Z,19.09
2022-08-16T23:49:56.292Z,19.06
2022-08-16T23:51:32.445Z,19.01
2022-08-16T23:54:00.044Z,18.99
2022-08-16T23:56:26.731Z,18.96
2022-08-16T23:59:02.674Z,18.96
